Time;durP1;ratioP1;P1;durP2;ratioP2;P2;SDS_P1;SDS_P2;PMS_P1;PMS_P2;Temp;Humidity;BMP_temperature;BMP_pressure;BME280_temperature;BME280_humidity;BME280_pressure;Samples;Min_cycle;Max_cycle;Signal;HPM_P1;HPM_P2
2021/07/11 00:02:00;;;;;;;0.10;0.10;;;;;;;16.35;74.96;92583.34;6216600;23;19911;-94
2021/07/11 00:05:28;;;;;;;0.20;0.20;;;;;;;16.44;74.02;92594.63;6217261;23;20031;-93
2021/07/11 00:09:19;;;;;;;;;;;;;;;;;;;;;
2021/07/11 00:12:56;;;;;;;;;;;;;;;;;;;;;
2021/07/11 00:16:38;;;;;;;;;;;;;;;;;;;;;
2021/07/11 00:20:40;;;;;;;0.52;0.38;;;;;;;16.64;72.42;92619.53;6340393;22;20110;-93
2021/07/11 00:23:47;;;;;;;;;;;;;;;;;;;;;
2021/07/11 00:26:42;;;;;;;0.10;0.10;;;;;;;16.43;72.09;92581.72;6340398;22;20118;-91
2021/07/11 00:33:45;;;;;;;;;;;;;;;;;;;;;
2021/07/11 00:41:17;;;;;;;;;;;;;;;;;;;;;
2021/07/11 00:44:43;;;;;;;0.17;0.17;;;;;;;16.17;71.11;92558.88;6338443;22;20070;-95
2021/07/11 00:47:57;;;;;;;0.20;0.20;;;;;;;16.07;71.13;92550.53;6316811;22;20035;-95
2021/07/11 00:51:28;;;;;;;0.20;0.20;;;;;;;16.01;70.84;92534.09;6315399;22;20046;-94
2021/07/11 00:55:09;;;;;;;;;;;;;;;;;;;;;
2021/07/11 00:58:46;;;;;;;;;;;;;;;;;;;;;
2021/07/11 01:02:25;;;;;;;0.10;0.10;;;;;;;16.06;69.64;92547.13;6296857;22;20049;-95
2021/07/11 01:05:59;;;;;;;;;;;;;;;;;;;;;
2021/07/11 01:12:54;;;;;;;;;;;;;;;;;;;;;
2021/07/11 01:16:08;;;;;;;;;;;;;;;;;;;;;
2021/07/11 01:20:25;;;;;;;0.15;0.15;;;;;;;15.88;65.72;92514.75;6278306;22;20495;-94
2021/07/11 01:27:23;;;;;;;;;;;;;;;;;;;;;
2021/07/11 01:41:28;;;;;;;0.28;0.28;;;;;;;15.73;65.96;92525.84;6305598;22;20249;-93
2021/07/11 01:44:56;;;;;;;;;;;;;;;;;;;;;
2021/07/11 01:48:35;;;;;;;;;;;;;;;;;;;;;
2021/07/11 01:51:46;;;;;;;0.10;0.10;;;;;;;15.89;65.94;92578.88;6281083;22;20047;-93
2021/07/11 01:55:29;;;;;;;;;;;;;;;;;;;;;
2021/07/11 02:01:54;;;;;;;0.77;0.40;;;;;;;15.60;65.35;92543.38;6340335;22;20086;-93
2021/07/11 02:05:35;;;;;;;0.10;0.10;;;;;;;15.75;65.61;92573.78;6318066;22;20088;-93
2021/07/11 02:16:19;;;;;;;;;;;;;;;;;;;;;
2021/07/11 02:19:51;;;;;;;0.10;0.10;;;;;;;15.54;61.09;92516.41;6343996;22;20014;-94
2021/07/11 02:36:28;;;;;;;;;;;;;;;;;;;;;
2021/07/11 02:43:14;;;;;;;0.20;0.20;;;;;;;15.87;60.00;92529.03;6279095;22;20039;-93
2021/07/11 03:04:51;;;;;;;;;;;;;;;;;;;;;
2021/07/11 03:08:20;;;;;;;0.20;0.20;;;;;;;15.85;59.13;92527.78;6098189;23;20017;-91
2021/07/11 03:15:04;;;;;;;0.20;0.20;;;;;;;15.43;59.49;92488.81;6125995;23;20074;-95
2021/07/11 03:18:26;;;;;;;0.20;0.20;;;;;;;15.36;60.03;92483.25;6107603;23;20025;-95
2021/07/11 03:29:28;;;;;;;;;;;;;;;;;;;;;
2021/07/11 03:33:03;;;;;;;;;;;;;;;;;;;;;
2021/07/11 03:36:13;;;;;;;0.65;0.50;;;;;;;14.95;67.12;92532.00;6297482;22;20042;-93
2021/07/11 03:43:00;;;;;;;;;;;;;;;;;;;;;
2021/07/11 03:46:16;;;;;;;;;;;;;;;;;;;;;
2021/07/11 03:49:44;;;;;;;0.20;0.20;;;;;;;14.20;68.43;92497.09;6183277;23;20104;-92
2021/07/11 04:06:39;;;;;;;;;;;;;;;;;;;;;
2021/07/11 04:31:30;;;;;;;;;;;;;;;;;;;;;
2021/07/11 04:35:01;;;;;;;0.20;0.20;;;;;;;14.46;69.10;92555.09;6260669;22;20480;-93
2021/07/11 04:46:00;;;;;;;;;;;;;;;;;;;;;
2021/07/11 05:05:40;;;;;;;;;;;;;;;;;;;;;
2021/07/11 05:09:12;;;;;;;0.20;0.20;;;;;;;15.06;65.94;92541.16;5902528;24;20041;-93
2021/07/11 05:21:21;;;;;;;;;;;;;;;;;;;;;
2021/07/11 05:28:45;;;;;;;;;;;;;;;;;;;;;
2021/07/11 05:40:18;;;;;;;0.20;0.20;;;;;;;16.02;63.85;92498.69;6030711;23;20030;-95
2021/07/11 05:43:26;;;;;;;;;;;;;;;;;;;;;
2021/07/11 06:06:09;;;;;;;;;;;;;;;;;;;;;
2021/07/11 06:21:54;;;;;;;;;;;;;;;;;;;;;
2021/07/11 06:33:46;;;;;;;;;;;;;;;;;;;;;
2021/07/11 06:37:34;;;;;;;0.70;0.70;;;;;;;28.52;34.03;92487.72;5762006;24;20069;-92
2021/07/11 06:40:48;;;;;;;0.40;0.40;;;;;;;27.64;36.89;92512.91;5764636;24;20041;-90
2021/07/11 06:44:06;;;;;;;0.38;0.38;;;;;;;27.89;37.73;92526.22;5845813;24;20024;-90
2021/07/11 07:03:58;;;;;;;;;;;;;;;;;;;;;
2021/07/11 07:10:29;;;;;;;0.10;0.10;;;;;;;21.36;55.29;92513.13;6219849;22;20091;-76
2021/07/11 07:12:55;;;;;;;0.10;0.10;;;;;;;21.47;56.66;92521.34;6218142;23;20478;-77
2021/07/11 07:15:22;;;;;;;0.20;0.20;;;;;;;20.96;58.42;92523.03;6216411;23;20004;-77
2021/07/11 07:17:48;;;;;;;0.10;0.10;;;;;;;20.78;61.12;92521.88;6217452;23;20444;-78
2021/07/11 07:20:16;;;;;;;0.25;0.25;;;;;;;20.56;59.72;92529.41;6220149;22;20092;-77
2021/07/11 07:22:42;;;;;;;0.20;0.20;;;;;;;20.68;60.27;92511.81;6243109;23;20008;-77
2021/07/11 07:25:13;;;;;;;0.10;0.10;;;;;;;20.40;60.16;92520.69;6242337;23;20030;-77
2021/07/11 07:27:39;;;;;;;0.20;0.20;;;;;;;20.43;59.80;92521.88;6242004;23;20011;-77
2021/07/11 07:30:07;;;;;;;0.35;0.35;;;;;;;20.86;59.79;92522.81;6215248;23;20012;-76
2021/07/11 07:32:33;;;;;;;0.45;0.43;;;;;;;20.02;61.64;92516.78;6243534;22;20012;-77
2021/07/11 07:34:59;;;;;;;0.10;0.10;;;;;;;20.23;61.02;92521.03;6217816;23;20012;-77
2021/07/11 07:37:24;;;;;;;0.30;0.30;;;;;;;20.54;60.20;92531.63;6217927;23;20020;-77
2021/07/11 07:39:50;;;;;;;0.10;0.10;;;;;;;20.56;61.07;92525.97;6217831;23;20051;-77
2021/07/11 07:42:16;;;;;;;0.20;0.20;;;;;;;20.57;60.62;92527.53;6243182;22;20073;-78
2021/07/11 07:44:42;;;;;;;0.15;0.15;;;;;;;20.41;59.50;92521.44;6216903;23;20022;-77
2021/07/11 07:47:08;;;;;;;0.28;0.28;;;;;;;20.92;60.41;92527.50;6241517;23;20058;-77
2021/07/11 07:49:34;;;;;;;0.30;0.30;;;;;;;20.83;56.03;92526.16;6242045;23;20012;-77
2021/07/11 07:52:00;;;;;;;0.10;0.10;;;;;;;20.93;58.83;92521.06;6242815;22;20012;-76
2021/07/11 07:54:25;;;;;;;0.35;0.30;;;;;;;21.51;57.86;92525.63;6215457;23;20007;-77
2021/07/11 07:56:51;;;;;;;0.20;0.20;;;;;;;21.43;59.71;92523.94;6241982;23;20060;-77
2021/07/11 07:59:17;;;;;;;0.10;0.10;;;;;;;21.23;58.55;92519.72;6242396;23;20015;-77
2021/07/11 08:01:42;;;;;;;0.20;0.20;;;;;;;21.62;53.46;92521.25;6239900;22;20035;-77
2021/07/11 08:04:08;;;;;;;0.30;0.30;;;;;;;21.65;54.71;92519.78;6242335;23;20320;-77
2021/07/11 08:06:34;;;;;;;0.20;0.20;;;;;;;21.85;52.89;92522.41;6242675;23;20406;-76
2021/07/11 08:09:00;;;;;;;0.20;0.20;;;;;;;21.99;47.93;92511.97;6215015;23;20028;-77
2021/07/11 08:11:26;;;;;;;0.20;0.20;;;;;;;22.13;53.95;92517.50;6242308;22;20034;-76
2021/07/11 08:13:51;;;;;;;0.30;0.30;;;;;;;21.91;51.48;92520.97;6215938;23;20487;-77
2021/07/11 08:16:17;;;;;;;0.28;0.28;;;;;;;21.85;55.83;92528.50;6242576;23;20039;-77
2021/07/11 08:18:47;;;;;;;0.30;0.28;;;;;;;21.72;56.90;92521.78;6215990;23;20444;-77
2021/07/11 08:21:13;;;;;;;0.10;0.10;;;;;;;21.70;55.35;92527.47;6213408;23;20439;-76
2021/07/11 08:23:38;;;;;;;0.20;0.20;;;;;;;21.78;57.85;92533.69;6214389;23;20436;-76
2021/07/11 08:26:04;;;;;;;0.30;0.30;;;;;;;21.38;59.10;92538.28;6241863;23;20340;-76
2021/07/11 08:28:29;;;;;;;0.20;0.20;;;;;;;21.61;58.92;92526.91;6215375;23;20638;-76
2021/07/11 08:30:55;;;;;;;0.17;0.17;;;;;;;21.80;56.47;92537.53;6188790;23;20039;-76
2021/07/11 08:33:21;;;;;;;0.20;0.20;;;;;;;21.55;59.09;92536.34;6215346;23;20061;-77
2021/07/11 08:35:47;;;;;;;0.20;0.20;;;;;;;21.55;59.40;92531.03;6216825;23;20016;-77
2021/07/11 08:38:12;;;;;;;0.30;0.30;;;;;;;21.62;59.66;92539.91;6216869;23;20765;-76
2021/07/11 08:40:38;;;;;;;0.77;0.77;;;;;;;21.27;54.15;92525.91;6242119;22;20036;-77
2021/07/11 08:43:06;;;;;;;0.30;0.30;;;;;;;21.74;55.60;92528.31;6217080;23;20530;-77
2021/07/11 08:45:32;;;;;;;0.20;0.20;;;;;;;21.97;57.51;92536.28;6243484;23;20373;-76
2021/07/11 08:47:58;;;;;;;0.38;0.28;;;;;;;21.68;56.95;92535.03;6217007;23;20039;-76
2021/07/11 08:50:24;;;;;;;0.20;0.20;;;;;;;21.66;57.53;92534.66;6243295;22;20560;-76
2021/07/11 08:52:49;;;;;;;0.30;0.30;;;;;;;21.83;56.38;92544.81;6217849;23;20347;-76
2021/07/11 08:55:20;;;;;;;0.13;0.13;;;;;;;21.62;57.32;92533.81;6215948;23;20020;-76
2021/07/11 08:57:51;;;;;;;0.10;0.10;;;;;;;21.53;58.10;92538.59;6243662;23;20012;-78
2021/07/11 09:00:38;;;;;;;0.10;0.10;;;;;;;21.60;57.36;92544.03;6242401;22;20008;-76
2021/07/11 09:03:06;;;;;;;0.20;0.20;;;;;;;21.08;59.45;92540.75;6243161;23;20012;-78
2021/07/11 09:05:36;;;;;;;0.65;0.50;;;;;;;21.30;58.24;92541.94;6243490;23;20111;-77
2021/07/11 09:08:03;;;;;;;0.80;0.65;;;;;;;21.50;56.81;92539.28;6216766;23;20337;-78
2021/07/11 09:10:41;;;;;;;0.20;0.20;;;;;;;21.25;56.49;92533.47;6217134;22;20279;-78
2021/07/11 09:13:11;;;;;;;0.20;0.20;;;;;;;21.45;56.88;92536.91;6242866;23;20012;-77
2021/07/11 09:15:38;;;;;;;0.30;0.30;;;;;;;21.76;55.44;92534.03;6243784;23;20008;-77
2021/07/11 09:18:04;;;;;;;0.10;0.10;;;;;;;21.89;57.59;92539.22;6241547;23;20012;-77
2021/07/11 09:20:31;;;;;;;0.20;0.20;;;;;;;21.95;57.71;92533.25;6216566;22;20066;-77
2021/07/11 09:23:03;;;;;;;0.22;0.22;;;;;;;21.59;57.10;92537.94;6243257;23;20032;-77
2021/07/11 09:25:29;;;;;;;0.52;0.35;;;;;;;21.93;56.43;92532.03;6243347;23;20012;-78
2021/07/11 09:27:55;;;;;;;0.35;0.30;;;;;;;22.08;55.15;92539.13;6243220;23;20016;-77
2021/07/11 09:30:21;;;;;;;0.20;0.20;;;;;;;22.00;56.06;92532.94;6216718;22;20407;-78
2021/07/11 09:32:52;;;;;;;0.15;0.15;;;;;;;21.86;56.05;92531.91;6216673;23;20034;-77
2021/07/11 09:35:22;;;;;;;0.23;0.23;;;;;;;22.08;56.23;92530.38;6242537;23;20016;-77
2021/07/11 09:37:58;;;;;;;0.30;0.30;;;;;;;22.25;56.17;92535.25;6215573;23;20710;-77
2021/07/11 09:40:25;;;;;;;0.20;0.20;;;;;;;22.33;55.66;92538.78;6243156;22;20090;-77
2021/07/11 09:42:55;;;;;;;0.30;0.30;;;;;;;22.15;55.33;92536.59;6243805;23;20038;-77
2021/07/11 09:45:29;;;;;;;0.20;0.20;;;;;;;22.14;55.26;92532.38;6191203;23;20039;-77
2021/07/11 09:48:06;;;;;;;0.20;0.20;;;;;;;22.26;54.24;92538.69;6243490;23;20448;-77
2021/07/11 09:50:32;;;;;;;0.30;0.30;;;;;;;22.18;54.02;92538.56;6243369;22;20483;-77
2021/07/11 09:52:58;;;;;;;0.73;0.50;;;;;;;22.27;52.26;92540.22;6217478;23;20027;-79
2021/07/11 09:55:33;;;;;;;0.20;0.20;;;;;;;22.58;51.96;92539.16;6225377;23;20060;-79
2021/07/11 09:58:00;;;;;;;0.10;0.10;;;;;;;22.80;52.05;92542.91;6196279;23;20004;-79
2021/07/11 10:00:29;;;;;;;0.30;0.30;;;;;;;22.61;50.59;92541.88;6246577;22;20007;-79
2021/07/11 10:03:00;;;;;;;0.20;0.20;;;;;;;22.69;49.37;92541.97;6246760;23;20011;-77
2021/07/11 10:05:27;;;;;;;0.28;0.28;;;;;;;23.07;49.41;92541.00;6245087;23;20016;-77
2021/07/11 10:07:54;;;;;;;0.20;0.20;;;;;;;23.20;49.30;92539.63;6242562;23;20038;-76
2021/07/11 10:10:27;;;;;;;0.20;0.20;;;;;;;22.85;50.50;92547.91;6244506;22;20447;-76
2021/07/11 10:13:11;;;;;;;0.38;0.30;;;;;;;23.33;50.15;92542.84;6245487;23;20015;-77
2021/07/11 10:15:39;;;;;;;0.43;0.40;;;;;;;23.16;49.96;92538.03;6218020;23;20012;-77
2021/07/11 10:18:08;;;;;;;0.32;0.32;;;;;;;23.17;48.07;92540.38;6216408;23;20016;-77
2021/07/11 10:20:36;;;;;;;0.20;0.20;;;;;;;23.24;46.31;92534.34;6243663;22;20014;-78
2021/07/11 10:23:04;;;;;;;0.10;0.10;;;;;;;23.22;44.12;92537.38;6216630;23;20038;-78
2021/07/11 10:25:32;;;;;;;0.10;0.10;;;;;;;23.41;49.32;92533.75;6237777;23;20440;-77
2021/07/11 10:28:07;;;;;;;0.20;0.20;;;;;;;23.64;46.83;92538.97;6244163;23;20012;-78
2021/07/11 10:30:34;;;;;;;0.20;0.20;;;;;;;23.52;48.79;92541.13;6245899;22;20019;-78
2021/07/11 10:33:15;;;;;;;0.47;0.47;;;;;;;23.66;45.76;92533.25;6220288;23;20436;-79
2021/07/11 10:36:00;;;;;;;0.10;0.10;;;;;;;23.33;44.71;92532.16;6247087;23;20019;-78
2021/07/11 10:38:39;;;;;;;0.32;0.30;;;;;;;23.75;43.10;92531.06;6220190;23;20370;-79
2021/07/11 10:41:25;;;;;;;0.15;0.15;;;;;;;24.08;39.53;92524.13;6216673;23;20012;-78
2021/07/11 10:44:12;;;;;;;0.22;0.22;;;;;;;24.43;40.58;92522.84;6249819;23;20023;-78
2021/07/11 10:46:44;;;;;;;0.50;0.38;;;;;;;24.43;41.51;92523.63;6243463;23;20012;-77
2021/07/11 10:49:11;;;;;;;0.13;0.13;;;;;;;24.29;41.40;92521.59;6221578;23;20016;-78
2021/07/11 10:51:46;;;;;;;0.25;0.25;;;;;;;24.17;41.50;92524.56;6225732;23;20003;-80
2021/07/11 10:54:29;;;;;;;0.13;0.13;;;;;;;24.65;41.29;92526.47;6249093;23;20008;-80
2021/07/11 10:57:04;;;;;;;0.65;0.52;;;;;;;24.94;43.41;92527.41;6249683;23;20031;-80
2021/07/11 10:59:38;;;;;;;0.25;0.25;;;;;;;24.67;40.78;92522.28;6249790;23;20432;-82
2021/07/11 11:02:18;;;;;;;0.30;0.30;;;;;;;24.47;38.23;92526.31;6249840;22;20012;-81
2021/07/11 11:04:44;;;;;;;0.88;0.63;;;;;;;24.48;39.74;92517.19;6250738;23;20008;-82
2021/07/11 11:07:16;;;;;;;0.20;0.20;;;;;;;24.51;40.30;92511.09;6244557;23;20027;-81
2021/07/11 11:09:44;;;;;;;2.90;0.55;;;;;;;24.86;42.30;92515.91;6247487;22;20051;-84
2021/07/11 11:12:24;;;;;;;0.20;0.20;;;;;;;24.62;40.02;92522.63;6219336;23;20083;-79
2021/07/11 11:15:03;;;;;;;0.30;0.30;;;;;;;24.93;41.46;92513.25;6250698;23;20438;-80
2021/07/11 11:17:30;;;;;;;0.20;0.20;;;;;;;24.79;41.22;92520.44;6250847;23;20455;-79
2021/07/11 11:19:57;;;;;;;0.30;0.30;;;;;;;24.39;40.61;92519.41;6251218;23;20495;-79
2021/07/11 11:22:22;;;;;;;0.45;0.45;;;;;;;24.43;39.97;92512.16;6253436;22;20087;-79
2021/07/11 11:24:49;;;;;;;0.28;0.28;;;;;;;24.09;40.49;92507.72;6252015;23;20016;-77
2021/07/11 11:27:14;;;;;;;0.20;0.20;;;;;;;24.46;41.26;92509.50;6224406;23;20028;-78
2021/07/11 11:29:40;;;;;;;0.40;0.40;;;;;;;24.69;41.71;92497.81;6225075;23;20471;-78
2021/07/11 11:32:14;;;;;;;0.88;0.68;;;;;;;24.72;37.90;92510.44;6251158;22;20046;-79
2021/07/11 11:34:47;;;;;;;0.65;0.60;;;;;;;24.79;39.82;92512.41;6252774;23;20012;-79
2021/07/11 11:37:15;;;;;;;0.45;0.45;;;;;;;25.03;36.27;92497.59;6223271;23;20020;-79
2021/07/11 11:39:41;;;;;;;0.20;0.20;;;;;;;24.98;37.06;92506.75;6248360;23;20032;-79
2021/07/11 11:42:07;;;;;;;0.57;0.40;;;;;;;24.73;36.97;92498.63;6226159;23;20530;-81
2021/07/11 11:44:33;;;;;;;0.55;0.38;;;;;;;25.18;38.35;92499.19;6228738;23;20012;-81
2021/07/11 11:47:00;;;;;;;0.20;0.20;;;;;;;25.50;35.08;92495.88;6225285;23;20012;-81
2021/07/11 11:49:29;;;;;;;0.40;0.40;;;;;;;25.59;37.26;92511.59;6247247;23;20106;-80
2021/07/11 11:51:57;;;;;;;0.30;0.30;;;;;;;25.92;35.30;92503.25;6249704;22;20047;-80
2021/07/11 11:54:29;;;;;;;0.52;0.52;;;;;;;25.95;36.32;92507.84;6225254;23;20099;-78
2021/07/11 11:56:56;;;;;;;0.40;0.40;;;;;;;26.22;37.35;92507.47;6220235;23;20086;-78
2021/07/11 11:59:23;;;;;;;0.43;0.40;;;;;;;26.01;35.49;92515.50;6215814;23;20000;-78
2021/07/11 12:01:55;;;;;;;0.40;0.40;;;;;;;26.47;37.65;92512.06;6240425;22;20078;-78
2021/07/11 12:04:25;;;;;;;0.30;0.30;;;;;;;26.36;32.59;92506.69;6239552;23;20008;-77
2021/07/11 12:06:52;;;;;;;0.22;0.22;;;;;;;25.67;33.67;92505.88;6216629;23;20021;-78
2021/07/11 12:09:21;;;;;;;0.20;0.20;;;;;;;25.79;33.79;92501.31;6241425;23;20414;-77
2021/07/11 12:11:59;;;;;;;0.45;0.45;;;;;;;25.31;32.91;92503.09;6243216;22;20008;-77
2021/07/11 12:14:26;;;;;;;0.35;0.32;;;;;;;25.88;31.66;92513.22;6240767;23;20019;-76
2021/07/11 12:17:03;;;;;;;0.25;0.25;;;;;;;25.70;31.67;92504.34;6242590;23;20332;-77
2021/07/11 12:19:29;;;;;;;0.60;0.43;;;;;;;25.53;33.90;92503.94;6243549;23;20035;-76
2021/07/11 12:21:56;;;;;;;0.20;0.20;;;;;;;25.45;32.62;92501.63;6243071;22;20016;-77
2021/07/11 12:24:25;;;;;;;0.30;0.30;;;;;;;25.10;34.84;92508.34;6243180;23;20008;-77
2021/07/11 12:26:56;;;;;;;0.32;0.32;;;;;;;25.67;35.28;92503.19;6216221;23;20024;-77
2021/07/11 12:29:32;;;;;;;0.28;0.28;;;;;;;25.69;33.54;92489.41;6242226;23;20356;-77
2021/07/11 12:32:03;;;;;;;0.22;0.22;;;;;;;25.84;31.09;92490.94;6243385;22;20019;-77
2021/07/11 12:34:29;;;;;;;0.30;0.30;;;;;;;26.00;32.49;92500.56;6191030;23;20451;-77
2021/07/11 12:37:03;;;;;;;0.30;0.30;;;;;;;26.06;32.05;92499.06;6242688;23;20019;-76
2021/07/11 12:39:28;;;;;;;0.50;0.43;;;;;;;26.40;33.64;92493.28;6243137;23;20094;-76
2021/07/11 12:41:55;;;;;;;0.40;0.40;;;;;;;26.22;32.14;92496.00;6242597;22;20359;-76
2021/07/11 12:44:50;;;;;;;0.20;0.20;;;;;;;26.14;33.83;92493.31;6243161;23;20020;-76
2021/07/11 12:47:18;;;;;;;0.30;0.30;;;;;;;26.73;32.62;92497.50;6224619;23;20066;-76
2021/07/11 12:49:55;;;;;;;0.30;0.30;;;;;;;26.21;33.01;92492.53;6243690;23;20008;-77
2021/07/11 12:52:22;;;;;;;0.30;0.30;;;;;;;26.60;33.32;92497.13;6245410;22;20018;-81
2021/07/11 12:54:48;;;;;;;0.52;0.47;;;;;;;26.78;34.50;92486.34;6246601;23;20004;-78
2021/07/11 12:57:14;;;;;;;0.45;0.40;;;;;;;26.25;33.71;92487.91;6245968;23;20519;-77
2021/07/11 12:59:52;;;;;;;0.20;0.20;;;;;;;26.65;31.10;92483.31;6244443;23;20020;-80
2021/07/11 13:02:20;;;;;;;0.68;0.68;;;;;;;26.20;35.23;92484.88;6219215;23;20027;-81
2021/07/11 13:04:58;;;;;;;0.25;0.25;;;;;;;25.77;34.12;92477.53;6246102;23;20012;-81
2021/07/11 13:07:27;;;;;;;0.40;0.40;;;;;;;25.98;34.41;92481.41;6218585;23;20015;-81
2021/07/11 13:09:53;;;;;;;0.40;0.40;;;;;;;26.42;32.31;92485.63;6245698;23;20082;-80
2021/07/11 13:12:20;;;;;;;0.60;0.60;;;;;;;26.47;31.68;92487.91;6219257;23;20448;-80
2021/07/11 13:14:56;;;;;;;0.30;0.30;;;;;;;26.57;31.43;92490.63;6219522;23;20004;-83
2021/07/11 13:17:23;;;;;;;0.28;0.28;;;;;;;26.79;33.05;92488.66;6243333;23;20440;-83
2021/07/11 13:19:49;;;;;;;0.50;0.50;;;;;;;26.11;32.19;92488.69;6192803;23;20004;-82
2021/07/11 13:22:15;;;;;;;0.40;0.40;;;;;;;26.32;32.44;92487.94;6247246;22;20364;-82
2021/07/11 13:24:41;;;;;;;0.20;0.20;;;;;;;26.25;32.69;92493.28;6248714;23;20047;-82
2021/07/11 13:27:06;;;;;;;0.30;0.30;;;;;;;26.01;33.38;92488.69;6246493;23;20463;-82
2021/07/11 13:29:32;;;;;;;2.25;0.47;;;;;;;26.26;32.60;92491.41;6219765;23;20001;-79
2021/07/11 13:31:58;;;;;;;0.43;0.43;;;;;;;26.66;34.53;92495.59;6249796;22;20008;-82
2021/07/11 13:34:23;;;;;;;0.40;0.40;;;;;;;26.91;32.53;92492.84;6247455;23;20016;-84
2021/07/11 13:36:49;;;;;;;0.20;0.20;;;;;;;26.95;33.01;92496.28;6249005;23;20094;-82
2021/07/11 13:39:15;;;;;;;0.20;0.20;;;;;;;27.36;31.90;92497.69;6247874;23;20012;-83
2021/07/11 13:41:40;;;;;;;0.45;0.45;;;;;;;27.42;31.16;92493.41;6247839;22;20016;-83
2021/07/11 13:44:06;;;;;;;0.40;0.40;;;;;;;27.79;32.20;92494.75;6249778;23;20386;-83
2021/07/11 13:46:32;;;;;;;0.52;0.40;;;;;;;27.94;32.53;92496.22;6221813;23;20498;-82
2021/07/11 13:48:59;;;;;;;0.40;0.40;;;;;;;27.20;33.37;92495.44;6248806;23;20023;-82
2021/07/11 13:51:26;;;;;;;0.40;0.40;;;;;;;26.87;33.41;92499.38;6247421;22;20019;-81
2021/07/11 13:53:51;;;;;;;0.40;0.40;;;;;;;26.82;33.87;92486.31;6247697;23;20022;-83
2021/07/11 13:56:17;;;;;;;0.47;0.47;;;;;;;26.54;32.60;92496.72;6246866;23;20012;-81
2021/07/11 13:58:43;;;;;;;0.32;0.32;;;;;;;26.94;31.02;92493.97;6218615;23;20062;-78
2021/07/11 14:01:09;;;;;;;0.40;0.40;;;;;;;27.51;33.75;92495.69;6245911;22;20456;-82
2021/07/11 14:03:35;;;;;;;0.35;0.35;;;;;;;27.94;32.58;92488.13;6244257;23;20174;-81
2021/07/11 14:06:00;;;;;;;0.40;0.40;;;;;;;27.26;33.34;92495.81;6246150;23;20495;-81
2021/07/11 14:08:26;;;;;;;0.47;0.40;;;;;;;27.21;33.26;92486.22;6245236;22;20024;-81
2021/07/11 14:10:52;;;;;;;0.30;0.30;;;;;;;27.06;34.22;92496.22;6245330;22;20353;-81
2021/07/11 14:13:18;;;;;;;0.40;0.40;;;;;;;27.35;34.15;92488.09;6217606;23;20075;-80
2021/07/11 14:15:45;;;;;;;0.60;0.60;;;;;;;27.65;33.65;92492.16;6219204;23;20022;-82
2021/07/11 14:18:11;;;;;;;0.52;0.52;;;;;;;28.12;34.49;92477.25;6218524;23;20486;-82
2021/07/11 14:20:36;;;;;;;0.40;0.40;;;;;;;27.31;35.07;92492.69;6246685;22;20016;-81
2021/07/11 14:23:02;;;;;;;0.80;0.60;;;;;;;27.76;35.52;92490.16;6219719;23;20027;-81
2021/07/11 14:25:30;;;;;;;0.45;0.43;;;;;;;27.62;35.20;92494.47;6218707;23;20620;-81
2021/07/11 14:27:55;;;;;;;0.55;0.55;;;;;;;27.56;34.67;92482.59;6246282;23;20019;-80
2021/07/11 14:30:21;;;;;;;1.20;0.60;;;;;;;26.83;35.56;92477.13;6218895;22;20355;-81
2021/07/11 14:32:47;;;;;;;0.30;0.30;;;;;;;26.90;35.37;92482.47;6218213;23;20642;-81
2021/07/11 14:35:13;;;;;;;0.40;0.40;;;;;;;26.75;35.23;92482.53;6245475;23;20007;-81
2021/07/11 14:37:39;;;;;;;0.30;0.30;;;;;;;27.00;37.13;92479.00;6218495;23;20038;-81
2021/07/11 14:40:05;;;;;;;0.63;0.63;;;;;;;27.40;36.86;92479.59;6218666;23;20040;-80
2021/07/11 14:42:31;;;;;;;0.75;0.75;;;;;;;27.79;36.75;92482.06;6245396;22;20047;-80
2021/07/11 14:44:56;;;;;;;0.30;0.30;;;;;;;27.53;34.24;92474.56;6247405;23;20398;-81
2021/07/11 14:47:22;;;;;;;0.57;0.57;;;;;;;27.25;34.76;92481.59;6245346;23;20023;-81
2021/07/11 14:49:48;;;;;;;0.40;0.40;;;;;;;27.67;35.04;92479.06;6243007;23;20016;-81
2021/07/11 14:52:14;;;;;;;0.47;0.47;;;;;;;27.32;35.21;92481.56;6246159;22;20506;-80
2021/07/11 14:54:41;;;;;;;0.30;0.30;;;;;;;26.87;34.20;92475.97;6245271;23;20443;-82
2021/07/11 14:57:08;;;;;;;0.93;0.82;;;;;;;26.33;34.13;92473.34;6218297;23;20004;-81
2021/07/11 14:59:37;;;;;;;0.45;0.45;;;;;;;26.69;34.86;92478.69;6244833;23;20007;-82
2021/07/11 15:02:04;;;;;;;0.38;0.38;;;;;;;26.70;35.65;92469.47;6244604;22;20716;-81
2021/07/11 15:04:30;;;;;;;0.40;0.40;;;;;;;26.40;36.32;92471.81;6244997;23;20444;-81
2021/07/11 15:06:55;;;;;;;0.70;0.70;;;;;;;26.88;36.67;92476.72;6243429;23;20013;-82
2021/07/11 15:09:21;;;;;;;0.20;0.20;;;;;;;26.57;35.32;92476.44;6243228;22;20046;-81
2021/07/11 15:11:47;;;;;;;0.45;0.45;;;;;;;26.90;35.46;92482.47;6245358;22;20012;-81
2021/07/11 15:14:13;;;;;;;0.30;0.30;;;;;;;26.38;35.17;92470.28;6245078;23;20371;-80
2021/07/11 15:16:39;;;;;;;0.68;0.50;;;;;;;25.85;36.87;92468.38;6243296;23;20070;-80
2021/07/11 15:19:05;;;;;;;0.38;0.38;;;;;;;25.97;37.69;92469.94;6244702;23;20004;-81
2021/07/11 15:21:31;;;;;;;0.68;0.68;;;;;;;26.84;36.86;92466.00;6241295;22;20491;-81
2021/07/11 15:23:57;;;;;;;0.50;0.50;;;;;;;26.61;35.27;92468.34;6218647;23;20148;-81
2021/07/11 15:26:24;;;;;;;0.30;0.30;;;;;;;27.13;36.11;92469.34;6244641;23;20622;-81
2021/07/11 15:28:51;;;;;;;0.40;0.40;;;;;;;27.46;34.37;92472.66;6243300;23;20015;-82
2021/07/11 15:31:17;;;;;;;0.40;0.40;;;;;;;26.95;34.89;92474.00;6218491;23;20000;-81
2021/07/11 15:33:43;;;;;;;0.75;0.63;;;;;;;27.05;34.90;92473.22;6245242;23;20478;-79
2021/07/11 15:36:12;;;;;;;0.25;0.25;;;;;;;26.96;33.81;92472.88;6219604;23;20444;-82
2021/07/11 15:38:38;;;;;;;0.17;0.17;;;;;;;27.14;34.66;92473.56;6245526;23;20070;-79
2021/07/11 15:41:05;;;;;;;0.32;0.32;;;;;;;27.42;34.52;92469.22;6218697;23;20012;-81
2021/07/11 15:43:31;;;;;;;0.28;0.22;;;;;;;27.02;34.30;92476.69;6217755;23;20024;-80
2021/07/11 15:45:57;;;;;;;0.20;0.20;;;;;;;27.61;35.87;92478.75;6217323;23;20016;-81
2021/07/11 15:48:23;;;;;;;0.45;0.45;;;;;;;27.72;32.51;92474.06;6245648;23;20016;-80
2021/07/11 15:50:50;;;;;;;0.47;0.47;;;;;;;27.47;34.17;92465.38;6217301;23;20000;-81
2021/07/11 15:53:20;;;;;;;0.50;0.50;;;;;;;27.70;32.79;92462.94;6245559;23;20004;-80
2021/07/11 15:55:47;;;;;;;0.50;0.50;;;;;;;27.71;32.66;92469.81;6245497;23;20015;-81
2021/07/11 15:58:13;;;;;;;0.43;0.40;;;;;;;27.78;32.75;92466.31;6247846;23;20023;-81
2021/07/11 16:00:40;;;;;;;0.52;0.52;;;;;;;27.84;32.16;92467.47;6250010;22;20049;-79
2021/07/11 16:03:08;;;;;;;0.75;0.75;;;;;;;27.94;33.37;92472.00;6221283;23;20447;-80
2021/07/11 16:05:38;;;;;;;0.50;0.50;;;;;;;27.82;32.82;92469.75;6245500;23;20356;-81
2021/07/11 16:08:05;;;;;;;0.63;0.63;;;;;;;27.99;33.15;92455.47;6246525;23;20028;-79
2021/07/11 16:10:30;;;;;;;0.75;0.65;;;;;;;28.03;33.80;92468.88;6251658;22;20012;-80
2021/07/11 16:12:56;;;;;;;0.60;0.60;;;;;;;27.14;34.06;92465.50;6223576;23;20027;-80
2021/07/11 16:15:24;;;;;;;0.68;0.52;;;;;;;27.56;34.38;92463.78;6225795;23;20011;-81
2021/07/11 16:17:50;;;;;;;0.40;0.40;;;;;;;27.49;33.45;92466.50;6219456;23;20067;-80
2021/07/11 16:20:16;;;;;;;3.83;2.10;;;;;;;27.62;33.58;92462.19;6221127;22;20017;-81
2021/07/11 16:22:42;;;;;;;1.48;1.10;;;;;;;27.70;33.56;92459.47;6195214;23;20050;-80
2021/07/11 16:25:11;;;;;;;0.70;0.63;;;;;;;27.54;33.89;92466.09;6217885;23;20019;-80
2021/07/11 16:27:37;;;;;;;0.30;0.30;;;;;;;27.28;33.31;92463.94;6247441;23;20000;-81
2021/07/11 16:30:05;;;;;;;0.95;0.43;;;;;;;26.87;34.18;92461.78;6194523;23;20567;-80
2021/07/11 16:32:31;;;;;;;0.20;0.20;;;;;;;26.42;34.73;92458.78;6218804;23;20012;-82
2021/07/11 16:34:57;;;;;;;0.45;0.45;;;;;;;26.60;35.66;92459.53;6242626;23;20019;-81
2021/07/11 16:37:23;;;;;;;1.08;0.80;;;;;;;26.94;34.70;92451.75;6217870;23;20016;-78
2021/07/11 16:39:48;;;;;;;0.93;0.80;;;;;;;26.82;34.85;92454.88;6218807;23;20016;-81
2021/07/11 16:42:14;;;;;;;0.57;0.57;;;;;;;26.93;35.44;92452.16;6242259;22;20086;-80
2021/07/11 16:44:40;;;;;;;0.52;0.50;;;;;;;26.73;35.53;92451.84;6241810;23;20000;-81
2021/07/11 16:47:08;;;;;;;0.57;0.55;;;;;;;26.57;35.74;92454.97;6246110;23;20016;-81
2021/07/11 16:49:33;;;;;;;0.40;0.40;;;;;;;26.74;34.71;92453.38;6244978;23;20344;-82
2021/07/11 16:51:59;;;;;;;0.70;0.70;;;;;;;26.81;35.44;92452.59;6250219;22;20078;-79
2021/07/11 16:54:25;;;;;;;0.35;0.35;;;;;;;26.92;35.42;92456.00;6222088;23;20012;-81
2021/07/11 16:56:51;;;;;;;0.73;0.50;;;;;;;26.79;35.86;92455.66;6246765;23;20023;-83
2021/07/11 16:59:17;;;;;;;0.28;0.28;;;;;;;26.72;34.16;92453.75;6249534;23;20042;-81
2021/07/11 17:01:42;;;;;;;0.50;0.50;;;;;;;26.43;34.59;92457.63;6249904;22;20004;-81
2021/07/11 17:04:08;;;;;;;0.40;0.40;;;;;;;26.63;36.17;92455.31;6221356;23;20020;-82